Time;durP1;ratioP1;P1;durP2;ratioP2;P2;SDS_P1;SDS_P2;PMS_P1;PMS_P2;Temp;Humidity;BMP_temperature;BMP_pressure;BME280_temperature;BME280_humidity;BME280_pressure;Samples;Min_cycle;Max_cycle;Signal;HPM_P1;HPM_P2
2021/06/08 00:01:12;;;;;;;11.05;8.93;;;18.50;99.90;;;;;;5013302;28;20117;-75
2021/06/08 00:03:38;;;;;;;10.45;9.35;;;18.50;99.90;;;;;;5020249;28;20029;-75
2021/06/08 00:06:04;;;;;;;14.93;11.98;;;18.40;99.90;;;;;;5019923;28;20459;-75
2021/06/08 00:08:29;;;;;;;16.63;11.50;;;18.40;99.90;;;;;;5018759;28;20029;-75
2021/06/08 00:10:55;;;;;;;17.50;13.32;;;18.40;99.90;;;;;;5014813;28;20064;-74
2021/06/08 00:13:21;;;;;;;13.50;12.13;;;18.30;99.90;;;;;;5013980;28;20057;-75
2021/06/08 00:15:47;;;;;;;16.63;13.98;;;18.30;99.90;;;;;;5013580;28;20042;-75
2021/06/08 00:18:12;;;;;;;16.30;14.55;;;18.30;99.90;;;;;;5014216;28;20540;-76
2021/06/08 00:20:38;;;;;;;16.00;14.38;;;18.30;99.90;;;;;;5017233;28;20029;-75
2021/06/08 00:23:04;;;;;;;15.13;13.02;;;18.20;99.90;;;;;;5014718;28;20091;-74
2021/06/08 00:25:30;;;;;;;17.15;14.65;;;18.20;99.90;;;;;;5012844;28;20025;-74
2021/06/08 00:27:57;;;;;;;17.30;15.60;;;18.20;99.90;;;;;;5015293;28;20018;-74
2021/06/08 00:30:23;;;;;;;19.70;15.63;;;18.10;99.90;;;;;;5016241;28;20029;-74
2021/06/08 00:32:49;;;;;;;19.40;15.07;;;18.10;99.90;;;;;;5017654;28;20036;-74
2021/06/08 00:35:15;;;;;;;16.90;15.20;;;18.10;99.90;;;;;;5015783;28;20029;-74
2021/06/08 00:37:40;;;;;;;17.02;15.13;;;18.00;99.90;;;;;;5022469;28;20034;-74
2021/06/08 00:40:07;;;;;;;17.85;14.38;;;17.90;99.90;;;;;;5012538;28;20502;-73
2021/06/08 00:42:36;;;;;;;16.48;14.07;;;17.90;99.90;;;;;;5014023;28;20041;-74
2021/06/08 00:45:06;;;;;;;16.48;14.75;;;17.90;99.90;;;;;;5014670;28;20037;-74
2021/06/08 00:47:31;;;;;;;22.00;15.10;;;17.90;99.90;;;;;;5018762;28;20026;-74
2021/06/08 00:49:57;;;;;;;15.63;13.57;;;17.90;99.90;;;;;;5015556;28;20037;-74
2021/06/08 00:52:23;;;;;;;15.77;13.25;;;17.90;99.90;;;;;;5017112;28;20061;-74
2021/06/08 00:54:48;;;;;;;15.52;13.88;;;17.90;99.90;;;;;;5014833;28;20035;-74
2021/06/08 00:57:15;;;;;;;15.98;13.88;;;17.90;99.90;;;;;;5014975;28;20065;-74
2021/06/08 00:59:40;;;;;;;17.38;15.52;;;17.80;99.90;;;;;;5012241;28;20034;-74
2021/06/08 01:02:06;;;;;;;19.15;17.10;;;17.70;99.90;;;;;;5013825;28;20526;-75
2021/06/08 01:04:32;;;;;;;14.15;12.60;;;17.70;99.90;;;;;;5014271;28;20402;-74
2021/06/08 01:06:58;;;;;;;14.98;12.30;;;17.70;99.90;;;;;;5014288;28;20126;-74
2021/06/08 01:09:24;;;;;;;15.38;13.77;;;17.70;99.90;;;;;;5017449;28;20080;-74
2021/06/08 01:11:50;;;;;;;16.63;13.63;;;17.70;99.90;;;;;;5014875;28;20394;-75
2021/06/08 01:14:15;;;;;;;20.85;14.50;;;17.70;99.90;;;;;;5014945;28;20026;-74
2021/06/08 01:16:41;;;;;;;18.75;16.65;;;17.60;99.90;;;;;;5016436;28;20017;-74
2021/06/08 01:19:07;;;;;;;19.05;17.05;;;17.60;99.90;;;;;;5016310;28;20033;-75
2021/06/08 01:21:34;;;;;;;21.50;17.35;;;17.50;99.90;;;;;;5015859;28;20028;-74
2021/06/08 01:24:02;;;;;;;20.30;17.98;;;17.60;99.90;;;;;;5014746;28;20044;-73
2021/06/08 01:26:29;;;;;;;19.67;17.50;;;17.50;99.90;;;;;;5012669;28;20149;-74
2021/06/08 01:29:02;;;;;;;25.33;17.90;;;17.50;99.90;;;;;;5018312;28;20064;-74
2021/06/08 01:31:31;;;;;;;20.73;17.23;;;17.50;99.90;;;;;;5014053;28;20026;-73
2021/06/08 01:33:57;;;;;;;20.73;17.88;;;17.50;99.90;;;;;;5014464;28;20018;-74
2021/06/08 01:36:26;;;;;;;20.83;18.63;;;17.40;99.90;;;;;;5013684;28;20458;-74
2021/06/08 01:38:52;;;;;;;22.02;18.33;;;17.40;99.90;;;;;;5015007;28;20034;-74
2021/06/08 01:41:22;;;;;;;22.80;17.13;;;17.40;99.90;;;;;;5013680;28;20049;-74
2021/06/08 01:43:48;;;;;;;16.42;14.63;;;17.40;99.90;;;;;;5011197;28;20050;-74
2021/06/08 01:46:16;;;;;;;21.30;16.55;;;17.40;99.90;;;;;;5013957;28;20490;-74
2021/06/08 01:48:42;;;;;;;19.08;15.52;;;17.40;99.90;;;;;;5017283;28;20421;-74
2021/06/08 01:51:39;;;;;;;17.80;15.23;;;17.40;99.90;;;;;;5018176;28;20018;-74
2021/06/08 01:54:44;;;;;;;17.65;15.32;;;17.30;99.90;;;;;;5013313;28;20025;-74
2021/06/08 01:57:21;;;;;;;16.50;14.88;;;17.30;99.90;;;;;;4942819;28;20036;-75
2021/06/08 02:00:16;;;;;;;18.40;14.98;;;17.30;99.90;;;;;;4940245;28;20050;-74
2021/06/08 02:02:50;;;;;;;17.60;14.82;;;17.20;99.90;;;;;;4993123;28;20486;-74
2021/06/08 02:05:28;;;;;;;18.80;16.85;;;17.20;99.90;;;;;;5019882;28;20147;-74
2021/06/08 02:08:02;;;;;;;16.75;15.02;;;17.20;99.90;;;;;;5011657;28;20061;-74
2021/06/08 02:10:58;;;;;;;16.65;14.75;;;17.10;99.90;;;;;;5014183;28;20034;-74
2021/06/08 02:13:24;;;;;;;17.10;14.80;;;17.10;99.90;;;;;;4994731;28;20026;-74
2021/06/08 02:16:11;;;;;;;16.27;14.57;;;17.10;99.90;;;;;;5014088;28;20596;-74
2021/06/08 02:18:40;;;;;;;17.05;15.32;;;17.00;99.90;;;;;;5016438;28;20028;-74
2021/06/08 02:21:07;;;;;;;20.15;18.02;;;17.00;99.90;;;;;;5016611;28;20486;-74
2021/06/08 02:23:35;;;;;;;19.63;17.55;;;17.00;99.90;;;;;;5011244;28;20132;-74
2021/06/08 02:26:02;;;;;;;18.45;16.52;;;16.90;99.90;;;;;;5015438;28;20550;-74
2021/06/08 02:28:34;;;;;;;16.90;15.10;;;16.90;99.90;;;;;;5011094;28;20030;-74
2021/06/08 02:31:02;;;;;;;22.52;18.75;;;16.90;99.90;;;;;;5011454;28;20044;-74
2021/06/08 02:33:29;;;;;;;18.83;16.80;;;16.80;99.90;;;;;;5015571;28;20404;-74
2021/06/08 02:35:56;;;;;;;17.70;15.20;;;16.80;99.90;;;;;;5017450;28;20052;-74
2021/06/08 02:38:23;;;;;;;18.67;16.67;;;16.80;99.90;;;;;;5020522;28;20026;-74
2021/06/08 02:40:51;;;;;;;19.77;17.50;;;16.80;99.90;;;;;;5021255;28;20038;-74
2021/06/08 02:43:23;;;;;;;20.10;17.23;;;16.70;99.90;;;;;;5018078;28;20446;-74
2021/06/08 02:45:50;;;;;;;24.40;20.58;;;16.70;99.90;;;;;;5018722;28;20381;-74
2021/06/08 02:48:16;;;;;;;20.67;17.60;;;16.70;99.90;;;;;;5020004;28;20465;-74
2021/06/08 02:50:45;;;;;;;22.00;19.63;;;16.60;99.90;;;;;;5017455;28;20097;-74
2021/06/08 02:53:11;;;;;;;22.95;20.20;;;16.60;99.90;;;;;;5015244;28;20057;-74
2021/06/08 02:55:37;;;;;;;21.42;18.65;;;16.60;99.90;;;;;;5015622;28;20056;-74
2021/06/08 02:58:05;;;;;;;23.20;17.10;;;16.60;99.90;;;;;;5020964;28;20422;-74
2021/06/08 03:00:31;;;;;;;24.23;20.98;;;16.60;99.90;;;;;;5020675;28;20032;-74
2021/06/08 03:03:01;;;;;;;22.13;19.98;;;16.50;99.90;;;;;;5016333;28;20386;-74
2021/06/08 03:05:57;;;;;;;26.85;23.90;;;16.40;99.90;;;;;;5024117;28;20033;-74
2021/06/08 03:08:39;;;;;;;24.42;21.45;;;16.40;99.90;;;;;;5023726;28;20045;-74
2021/06/08 03:11:13;;;;;;;24.57;21.30;;;16.40;99.90;;;;;;5020964;28;20053;-74
2021/06/08 03:13:39;;;;;;;24.75;21.20;;;16.40;99.90;;;;;;5018058;28;20030;-74
2021/06/08 03:16:07;;;;;;;25.50;22.80;;;16.40;99.90;;;;;;5021149;28;20029;-74
2021/06/08 03:18:34;;;;;;;26.65;22.00;;;16.40;99.90;;;;;;5016808;28;20044;-74
2021/06/08 03:21:10;;;;;;;25.83;23.08;;;16.40;99.90;;;;;;5016345;28;20018;-74
2021/06/08 03:23:40;;;;;;;25.63;21.75;;;16.30;99.90;;;;;;5017777;28;20041;-74
2021/06/08 03:26:07;;;;;;;20.98;17.90;;;16.30;99.90;;;;;;5018138;28;20045;-75
2021/06/08 03:28:35;;;;;;;19.85;17.85;;;16.40;99.90;;;;;;5016048;28;20026;-76
2021/06/08 03:31:02;;;;;;;21.15;18.95;;;16.40;99.90;;;;;;5017839;28;20056;-76
2021/06/08 03:33:29;;;;;;;24.58;19.60;;;16.30;99.90;;;;;;5018366;28;20105;-75
2021/06/08 03:35:56;;;;;;;26.05;22.27;;;16.30;99.90;;;;;;5016485;28;20474;-76
2021/06/08 03:38:24;;;;;;;24.88;22.17;;;16.20;99.90;;;;;;5018571;28;20060;-75
2021/06/08 03:40:54;;;;;;;25.02;20.80;;;16.20;99.90;;;;;;5015844;28;20029;-75
2021/06/08 03:43:22;;;;;;;24.55;20.85;;;16.20;99.90;;;;;;5016075;28;20041;-75
2021/06/08 03:45:49;;;;;;;26.90;22.10;;;16.10;99.90;;;;;;5020467;28;20108;-75
2021/06/08 03:48:16;;;;;;;23.25;20.75;;;16.10;99.90;;;;;;5015677;28;20033;-75
2021/06/08 03:50:48;;;;;;;27.35;24.33;;;16.10;99.90;;;;;;5020113;28;20026;-75
2021/06/08 03:53:14;;;;;;;30.17;24.52;;;16.10;99.90;;;;;;5018920;28;20088;-75
2021/06/08 03:55:40;;;;;;;28.25;23.80;;;16.10;99.90;;;;;;5021631;28;20018;-75
2021/06/08 03:58:13;;;;;;;29.35;24.80;;;16.10;99.90;;;;;;5018243;28;20030;-75
2021/06/08 04:00:40;;;;;;;29.92;25.85;;;16.10;99.90;;;;;;5017768;28;20022;-75
2021/06/08 04:03:08;;;;;;;32.30;24.48;;;16.00;99.90;;;;;;5012494;28;20042;-76
2021/06/08 04:05:35;;;;;;;26.95;23.63;;;16.10;99.90;;;;;;5016989;28;20018;-76
2021/06/08 04:08:00;;;;;;;26.75;23.35;;;16.10;99.90;;;;;;5017279;28;20111;-76
2021/06/08 04:10:26;;;;;;;26.20;21.25;;;16.00;99.90;;;;;;5016232;28;20070;-76
2021/06/08 04:12:58;;;;;;;22.02;19.10;;;16.00;99.90;;;;;;5018893;28;20029;-75
2021/06/08 04:15:26;;;;;;;25.30;21.77;;;16.00;99.90;;;;;;5023015;28;20037;-76
2021/06/08 04:17:53;;;;;;;27.58;21.88;;;16.00;99.90;;;;;;5018366;28;20034;-75
2021/06/08 04:20:19;;;;;;;25.83;21.83;;;16.00;99.90;;;;;;5012480;28;20017;-75
2021/06/08 04:22:46;;;;;;;24.63;22.00;;;16.00;99.90;;;;;;5022914;28;20483;-75
2021/06/08 04:25:15;;;;;;;24.20;20.75;;;16.00;99.90;;;;;;5019568;28;20152;-75
2021/06/08 04:27:41;;;;;;;26.52;21.88;;;16.00;99.90;;;;;;5017760;28;20022;-75
2021/06/08 04:30:08;;;;;;;29.35;25.10;;;16.00;99.90;;;;;;5024178;28;20034;-75
2021/06/08 04:32:35;;;;;;;26.13;21.10;;;16.00;99.90;;;;;;5024132;28;20462;-75
2021/06/08 04:35:04;;;;;;;25.05;21.98;;;15.90;99.90;;;;;;5019925;28;20030;-75
2021/06/08 04:37:30;;;;;;;24.55;20.67;;;16.00;99.90;;;;;;5016595;28;20492;-75
2021/06/08 04:39:56;;;;;;;24.17;21.52;;;16.00;99.90;;;;;;5010924;28;20123;-75
2021/06/08 04:42:21;;;;;;;23.75;19.70;;;16.00;99.90;;;;;;5018938;28;20054;-75
2021/06/08 04:44:50;;;;;;;23.02;20.02;;;16.00;99.90;;;;;;5018239;28;20030;-75
2021/06/08 04:47:17;;;;;;;23.45;19.92;;;16.00;99.90;;;;;;5019288;28;20055;-75
2021/06/08 04:49:43;;;;;;;23.73;20.20;;;16.00;99.90;;;;;;5018065;28;20030;-75
2021/06/08 04:52:09;;;;;;;23.77;21.27;;;16.00;99.90;;;;;;5016644;28;20026;-75
2021/06/08 04:54:36;;;;;;;23.23;20.75;;;16.00;99.90;;;;;;5016029;28;20528;-75
2021/06/08 04:57:04;;;;;;;23.95;19.38;;;16.10;99.90;;;;;;5022693;28;20439;-75
2021/06/08 04:59:33;;;;;;;22.40;19.30;;;16.20;99.90;;;;;;5013696;28;20347;-75
2021/06/08 05:02:06;;;;;;;25.20;21.27;;;16.20;99.90;;;;;;5016753;28;20376;-74
2021/06/08 05:04:34;;;;;;;23.83;19.23;;;16.20;99.90;;;;;;5020662;28;20033;-75
2021/06/08 05:07:04;;;;;;;22.75;20.30;;;16.20;99.90;;;;;;5016651;28;20026;-74
2021/06/08 05:09:36;;;;;;;22.38;19.25;;;16.20;99.90;;;;;;5015660;28;20041;-75
2021/06/08 05:12:05;;;;;;;25.58;19.45;;;16.30;99.90;;;;;;5019125;28;20018;-74
2021/06/08 05:14:33;;;;;;;22.08;19.38;;;16.20;99.90;;;;;;5014532;28;20014;-75
2021/06/08 05:16:59;;;;;;;24.63;22.00;;;16.30;99.90;;;;;;5016807;28;20026;-75
2021/06/08 05:19:26;;;;;;;28.55;23.83;;;16.30;99.90;;;;;;5017681;28;20025;-75
2021/06/08 05:21:53;;;;;;;29.95;24.75;;;16.30;99.90;;;;;;5013780;28;20025;-75
2021/06/08 05:24:20;;;;;;;33.17;27.48;;;16.40;99.90;;;;;;5019003;28;20048;-75
2021/06/08 05:26:48;;;;;;;34.35;27.38;;;16.40;99.90;;;;;;5014460;28;20100;-75
2021/06/08 05:29:18;;;;;;;31.27;27.55;;;16.40;99.90;;;;;;5017764;28;20036;-75
2021/06/08 05:31:44;;;;;;;36.15;28.45;;;16.40;99.90;;;;;;5017114;28;20030;-75
2021/06/08 05:34:12;;;;;;;35.58;28.73;;;16.50;99.90;;;;;;5015339;28;20052;-75
2021/06/08 05:36:39;;;;;;;34.33;29.50;;;16.50;99.90;;;;;;5018210;28;20026;-75
2021/06/08 05:39:06;;;;;;;33.03;29.35;;;16.50;99.90;;;;;;5017596;28;20041;-75
2021/06/08 05:41:32;;;;;;;35.72;28.48;;;16.60;99.90;;;;;;5017672;28;20101;-75
2021/06/08 05:43:58;;;;;;;33.97;28.27;;;16.60;99.90;;;;;;5018816;28;20124;-75
2021/06/08 05:46:33;;;;;;;30.77;26.63;;;16.60;99.90;;;;;;5016073;28;20033;-75
2021/06/08 05:49:06;;;;;;;39.70;33.55;;;16.60;99.90;;;;;;5019188;28;20021;-74
2021/06/08 05:51:35;;;;;;;34.67;30.40;;;16.60;99.90;;;;;;5019396;28;20025;-75
2021/06/08 05:54:01;;;;;;;36.88;30.60;;;16.60;99.90;;;;;;5019012;28;20033;-75
2021/06/08 05:56:32;;;;;;;36.08;28.00;;;16.70;99.90;;;;;;5019141;28;20412;-74
2021/06/08 05:58:58;;;;;;;29.13;25.33;;;16.70;99.90;;;;;;5017645;28;20418;-75
2021/06/08 06:01:26;;;;;;;27.77;24.70;;;16.70;99.90;;;;;;5017818;28;20033;-75
2021/06/08 06:03:52;;;;;;;31.85;27.20;;;16.80;99.90;;;;;;5019441;28;20029;-75
2021/06/08 06:06:18;;;;;;;30.85;26.80;;;16.80;99.90;;;;;;5014227;28;20426;-76
2021/06/08 06:08:45;;;;;;;40.72;32.20;;;16.80;99.90;;;;;;5019093;28;20034;-75
2021/06/08 06:11:13;;;;;;;32.90;28.30;;;16.80;99.90;;;;;;5016840;28;20378;-75
2021/06/08 06:13:46;;;;;;;33.35;29.75;;;16.80;99.90;;;;;;5023102;28;20076;-75
2021/06/08 06:16:12;;;;;;;32.88;29.38;;;16.90;99.90;;;;;;5023541;28;20112;-75
2021/06/08 06:18:39;;;;;;;30.42;24.17;;;17.00;99.90;;;;;;5022914;28;20452;-75
2021/06/08 06:21:05;;;;;;;30.40;25.55;;;17.00;99.90;;;;;;5019724;28;20054;-76
2021/06/08 06:23:34;;;;;;;31.17;26.13;;;17.00;99.90;;;;;;5020327;28;20030;-75
2021/06/08 06:26:00;;;;;;;28.80;25.70;;;17.10;99.90;;;;;;5027122;28;20363;-76
2021/06/08 06:28:26;;;;;;;32.80;26.45;;;17.10;99.90;;;;;;5022884;28;20029;-75
2021/06/08 06:30:53;;;;;;;32.53;28.90;;;17.20;99.90;;;;;;5027151;28;20038;-76
2021/06/08 06:33:21;;;;;;;34.92;29.40;;;17.30;99.90;;;;;;5022781;28;20540;-76
2021/06/08 06:35:47;;;;;;;31.40;26.88;;;17.30;99.90;;;;;;5024145;28;20478;-75
2021/06/08 06:38:14;;;;;;;32.67;26.98;;;17.40;99.90;;;;;;5016334;28;20040;-73
2021/06/08 06:40:42;;;;;;;35.40;30.92;;;17.50;99.90;;;;;;5018302;28;20025;-76
2021/06/08 06:43:15;;;;;;;33.45;28.90;;;17.70;99.90;;;;;;5023462;28;20041;-76
2021/06/08 06:45:41;;;;;;;30.15;26.88;;;17.90;99.90;;;;;;5015895;28;20063;-75
2021/06/08 06:48:12;;;;;;;25.23;22.05;;;18.10;99.90;;;;;;5021670;28;20424;-75
2021/06/08 06:50:39;;;;;;;28.70;22.35;;;18.20;99.90;;;;;;5017703;28;20036;-75
2021/06/08 06:53:05;;;;;;;25.92;23.38;;;18.20;99.90;;;;;;5024994;28;20116;-75
2021/06/08 06:55:32;;;;;;;24.98;22.20;;;18.40;99.90;;;;;;5019361;28;20037;-75
2021/06/08 06:57:58;;;;;;;26.27;23.42;;;18.60;99.90;;;;;;5020847;28;20037;-75
2021/06/08 07:00:26;;;;;;;24.67;22.02;;;18.90;99.90;;;;;;5015731;28;20033;-75
2021/06/08 07:02:53;;;;;;;23.27;20.80;;;19.10;99.90;;;;;;5020988;28;20479;-75
2021/06/08 07:05:22;;;;;;;23.48;19.90;;;19.30;99.90;;;;;;5017268;28;20471;-75
2021/06/08 07:07:48;;;;;;;22.80;20.40;;;19.40;99.90;;;;;;5016724;28;20113;-75
2021/06/08 07:10:16;;;;;;;21.98;19.67;;;19.40;99.90;;;;;;5019322;28;20474;-75
2021/06/08 07:12:44;;;;;;;21.77;19.58;;;19.60;99.90;;;;;;5019153;28;20052;-75
2021/06/08 07:15:11;;;;;;;22.50;20.08;;;19.60;99.90;;;;;;5025204;28;20048;-74
2021/06/08 07:17:38;;;;;;;20.80;18.60;;;19.70;99.90;;;;;;5013570;28;20142;-74
2021/06/08 07:20:04;;;;;;;21.65;19.35;;;19.80;99.90;;;;;;5018074;28;20056;-75
2021/06/08 07:22:32;;;;;;;22.55;17.58;;;20.00;99.90;;;;;;5016620;28;20022;-73
2021/06/08 07:24:59;;;;;;;22.33;18.35;;;20.10;99.90;;;;;;5017419;28;20363;-74
2021/06/08 07:27:24;;;;;;;17.17;15.45;;;20.20;99.90;;;;;;5018327;28;20501;-74
2021/06/08 07:29:52;;;;;;;18.58;16.67;;;20.30;99.90;;;;;;5021886;28;20034;-73
2021/06/08 07:32:36;;;;;;;17.35;15.32;;;20.40;99.90;;;;;;5018216;28;20018;-73
2021/06/08 07:35:14;;;;;;;19.38;15.45;;;20.50;99.90;;;;;;5023011;28;20017;-73
2021/06/08 07:37:48;;;;;;;18.08;14.82;;;20.60;99.90;;;;;;5014093;28;20025;-73
2021/06/08 07:40:28;;;;;;;13.27;11.35;;;20.60;99.90;;;;;;5016485;28;20463;-72
2021/06/08 07:43:03;;;;;;;14.75;13.07;;;20.60;99.90;;;;;;5004035;28;20180;-72
2021/06/08 07:45:36;;;;;;;13.88;11.15;;;20.70;99.90;;;;;;5013846;28;20018;-73
2021/06/08 07:48:04;;;;;;;15.10;12.45;;;20.80;99.90;;;;;;5010206;28;20026;-73
2021/06/08 07:50:36;;;;;;;15.95;12.98;;;20.90;99.90;;;;;;5017882;28;20540;-72
2021/06/08 07:53:03;;;;;;;13.48;12.07;;;20.90;99.90;;;;;;5022851;28;20029;-73
2021/06/08 07:55:30;;;;;;;13.25;11.93;;;21.00;99.90;;;;;;5017356;28;20026;-72
2021/06/08 07:57:56;;;;;;;16.20;11.30;;;20.90;99.90;;;;;;5016426;28;20052;-72
2021/06/08 08:00:22;;;;;;;15.05;11.25;;;21.10;99.90;;;;;;5018669;28;20109;-72
2021/06/08 08:02:51;;;;;;;11.80;10.50;;;21.10;99.90;;;;;;5015666;28;20038;-72
2021/06/08 08:05:19;;;;;;;12.63;10.52;;;21.20;99.90;;;;;;5014407;28;20026;-72
2021/06/08 08:07:45;;;;;;;11.30;9.65;;;21.30;99.90;;;;;;5018996;28;20189;-72
2021/06/08 08:10:12;;;;;;;11.05;9.20;;;21.40;99.90;;;;;;5014233;28;20069;-72
2021/06/08 08:12:40;;;;;;;13.00;8.80;;;21.20;99.90;;;;;;5019848;28;20443;-72
2021/06/08 08:15:07;;;;;;;10.10;8.20;;;21.40;99.90;;;;;;5014615;28;20091;-72
2021/06/08 08:17:34;;;;;;;9.73;7.20;;;21.50;99.90;;;;;;5019237;28;20026;-73
2021/06/08 08:20:04;;;;;;;7.38;6.15;;;21.60;99.90;;;;;;5016016;28;20477;-71
2021/06/08 08:22:30;;;;;;;7.57;6.13;;;21.70;99.90;;;;;;5017719;28;20033;-71
2021/06/08 08:24:55;;;;;;;8.18;5.80;;;21.80;99.90;;;;;;5013477;28;20034;-73
2021/06/08 08:27:23;;;;;;;6.30;5.40;;;21.90;99.90;;;;;;5019475;28;20025;-73
2021/06/08 08:29:48;;;;;;;7.13;4.40;;;22.00;99.90;;;;;;5018882;28;20029;-71
2021/06/08 08:32:15;;;;;;;5.57;4.90;;;22.00;99.90;;;;;;5018176;28;20026;-72
2021/06/08 08:34:42;;;;;;;5.43;4.00;;;22.10;99.90;;;;;;5018786;28;20076;-72
2021/06/08 08:37:08;;;;;;;5.13;4.45;;;22.10;99.90;;;;;;5017168;28;20022;-72
2021/06/08 08:39:34;;;;;;;4.97;4.20;;;22.10;99.90;;;;;;5017298;28;20046;-72
2021/06/08 08:42:01;;;;;;;4.20;3.65;;;22.20;99.90;;;;;;5022726;28;20045;-72
2021/06/08 08:44:27;;;;;;;4.35;4.05;;;22.30;99.90;;;;;;5018145;28;20045;-72
2021/06/08 08:46:53;;;;;;;5.47;4.80;;;22.30;99.90;;;;;;5016662;28;20409;-72
2021/06/08 08:49:18;;;;;;;6.50;4.72;;;22.40;99.90;;;;;;5018205;28;20026;-72
2021/06/08 08:51:47;;;;;;;4.03;3.63;;;22.50;99.90;;;;;;5016436;28;20032;-73
2021/06/08 08:54:13;;;;;;;4.43;2.75;;;22.50;99.90;;;;;;5014313;28;20044;-73
2021/06/08 08:56:41;;;;;;;3.05;2.72;;;22.60;99.90;;;;;;5018530;28;20021;-73
2021/06/08 08:59:15;;;;;;;3.05;2.28;;;22.70;99.90;;;;;;5018420;28;20033;-72
2021/06/08 09:01:47;;;;;;;3.25;2.40;;;22.80;99.90;;;;;;5019356;28;20033;-72
2021/06/08 09:04:13;;;;;;;5.57;3.45;;;22.90;99.90;;;;;;5015160;28;20124;-72
2021/06/08 09:06:39;;;;;;;3.85;3.00;;;23.00;99.90;;;;;;5018471;28;20030;-72
2021/06/08 09:09:07;;;;;;;4.20;3.53;;;23.10;99.90;;;;;;5015082;28;20038;-72
2021/06/08 09:11:39;;;;;;;4.78;4.00;;;23.30;99.90;;;;;;5013609;28;20018;-74
2021/06/08 09:14:07;;;;;;;3.85;3.25;;;23.30;99.80;;;;;;5012468;28;20549;-72
2021/06/08 09:16:33;;;;;;;3.08;2.70;;;23.40;99.90;;;;;;5015142;28;20593;-72
2021/06/08 09:19:08;;;;;;;5.10;2.95;;;23.60;99.90;;;;;;5021220;28;20029;-72
2021/06/08 09:21:38;;;;;;;2.58;2.38;;;23.70;99.90;;;;;;5017603;28;20076;-72
2021/06/08 09:24:19;;;;;;;3.08;2.75;;;23.80;99.40;;;;;;5013288;28;20084;-72
2021/06/08 09:26:55;;;;;;;5.75;2.72;;;23.90;99.90;;;;;;5017092;28;20433;-72
2021/06/08 09:29:27;;;;;;;4.90;2.80;;;24.00;99.90;;;;;;5019951;28;20033;-72
2021/06/08 09:32:13;;;;;;;5.63;3.92;;;24.20;99.90;;;;;;5013828;28;20057;-73
2021/06/08 09:34:51;;;;;;;3.53;3.10;;;24.20;99.90;;;;;;5013937;28;20025;-72
2021/06/08 09:37:37;;;;;;;2.88;2.60;;;24.40;99.50;;;;;;5013727;28;20036;-72
2021/06/08 09:40:19;;;;;;;4.70;2.50;;;24.60;99.60;;;;;;5016727;28;20053;-73
2021/06/08 09:42:47;;;;;;;3.17;2.13;;;24.60;99.60;;;;;;5011721;28;20593;-72
2021/06/08 09:45:17;;;;;;;3.80;2.53;;;24.80;98.90;;;;;;5011363;28;20406;-72
2021/06/08 09:47:43;;;;;;;2.63;2.08;;;24.90;99.00;;;;;;5016987;28;20490;-72
2021/06/08 09:50:34;;;;;;;3.97;2.20;;;25.00;95.40;;;;;;5015297;28;20030;-72
2021/06/08 09:53:20;;;;;;;5.80;1.65;;;25.00;96.10;;;;;;5018652;28;20021;-76
2021/06/08 09:55:53;;;;;;;1.60;1.50;;;25.20;96.80;;;;;;5013522;28;20088;-77
2021/06/08 09:58:19;;;;;;;5.28;2.30;;;25.20;97.10;;;;;;5015271;28;20025;-77
2021/06/08 10:01:04;;;;;;;3.65;2.53;;;25.20;98.10;;;;;;5016268;28;20028;-77
2021/06/08 10:03:34;;;;;;;1.98;1.88;;;25.20;96.70;;;;;;5020476;28;20478;-76
2021/06/08 10:06:11;;;;;;;5.15;2.30;;;25.30;96.40;;;;;;5016473;28;20018;-76
2021/06/08 10:08:38;;;;;;;3.17;1.85;;;25.40;96.20;;;;;;5013453;28;20064;-76
2021/06/08 10:11:13;;;;;;;2.72;1.73;;;25.60;96.40;;;;;;5016414;28;20026;-77
2021/06/08 10:13:38;;;;;;;3.35;2.05;;;25.80;95.70;;;;;;5017415;28;20030;-79
2021/06/08 10:16:07;;;;;;;2.88;1.48;;;25.70;95.50;;;;;;5012610;28;20109;-77
2021/06/08 10:18:50;;;;;;;5.40;2.40;;;25.80;94.70;;;;;;5016887;28;20029;-77
2021/06/08 10:21:32;;;;;;;2.72;1.90;;;25.90;95.00;;;;;;5013986;28;20399;-76
2021/06/08 10:24:06;;;;;;;2.65;1.80;;;25.90;95.10;;;;;;5016750;28;20440;-78
2021/06/08 10:26:34;;;;;;;4.28;1.30;;;26.00;93.50;;;;;;5012398;28;20052;-75
2021/06/08 10:29:04;;;;;;;2.30;1.60;;;26.00;94.00;;;;;;5018126;28;20018;-78
2021/06/08 10:31:30;;;;;;;2.10;1.90;;;26.10;94.40;;;;;;5021050;28;20443;-76
2021/06/08 10:33:57;;;;;;;2.05;1.80;;;26.20;94.40;;;;;;5017822;28;20104;-79
2021/06/08 10:36:26;;;;;;;2.47;1.70;;;26.20;94.90;;;;;;5011829;28;20029;-74
2021/06/08 10:38:52;;;;;;;3.58;2.63;;;26.10;94.60;;;;;;5016319;28;20034;-76
2021/06/08 10:41:18;;;;;;;2.05;1.33;;;26.10;94.40;;;;;;5019208;28;20029;-74
2021/06/08 10:43:44;;;;;;;1.60;1.50;;;26.00;92.20;;;;;;5018130;28;20034;-76
2021/06/08 10:46:26;;;;;;;2.15;1.27;;;26.10;93.30;;;;;;5020787;28;20056;-75
2021/06/08 10:48:53;;;;;;;1.33;1.00;;;26.30;92.30;;;;;;5014561;28;20435;-77
2021/06/08 10:51:21;;;;;;;4.63;1.50;;;26.40;92.00;;;;;;5019012;28;20127;-74
2021/06/08 10:53:57;;;;;;;2.35;1.80;;;26.60;93.50;;;;;;5018426;28;20673;-78
2021/06/08 10:56:31;;;;;;;3.08;1.80;;;26.50;94.40;;;;;;5011196;28;20054;-74
2021/06/08 10:59:04;;;;;;;2.28;1.92;;;26.60;95.00;;;;;;5019171;28;20033;-73
2021/06/08 11:01:40;;;;;;;;;;;26.70;92.70;;;;;;5027979;28;20072;-78
2021/06/08 11:04:32;;;;;;;2.17;1.55;;;26.70;93.60;;;;;;5016069;28;19918;-78
2021/06/08 11:06:59;;;;;;;2.22;2.03;;;26.70;93.80;;;;;;5016992;28;20098;-78
2021/06/08 11:09:25;;;;;;;2.53;1.85;;;26.70;93.00;;;;;;5020362;28;20033;-79
2021/06/08 11:11:54;;;;;;;3.97;1.80;;;26.70;90.10;;;;;;5018195;28;20025;-75
2021/06/08 11:14:38;;;;;;;3.25;1.80;;;26.70;90.90;;;;;;5018058;28;20117;-74
2021/06/08 11:17:08;;;;;;;3.05;2.08;;;26.60;91.20;;;;;;5020192;28;20076;-78
2021/06/08 11:19:49;;;;;;;2.38;1.80;;;26.90;91.50;;;;;;5019383;28;20061;-77
2021/06/08 11:22:17;;;;;;;1.45;1.35;;;27.10;91.80;;;;;;5017191;28;20037;-76
2021/06/08 11:24:45;;;;;;;3.30;1.50;;;27.20;92.20;;;;;;5021414;28;20037;-77
2021/06/08 11:27:11;;;;;;;1.95;1.70;;;27.40;91.20;;;;;;5016525;28;20026;-80
2021/06/08 11:29:48;;;;;;;2.35;2.20;;;27.40;91.80;;;;;;5018534;28;20109;-78
2021/06/08 11:32:29;;;;;;;2.88;2.67;;;27.40;90.30;;;;;;5018395;28;20033;-76
2021/06/08 11:35:16;;;;;;;6.72;3.05;;;26.90;91.40;;;;;;5018351;28;20359;-73
2021/06/08 11:37:57;;;;;;;2.85;2.13;;;26.90;90.30;;;;;;5026779;28;20029;-76
2021/06/08 11:40:35;;;;;;;2.65;2.33;;;27.00;91.30;;;;;;5020334;28;20026;-78
2021/06/08 11:43:10;;;;;;;3.28;2.25;;;27.00;91.90;;;;;;5025279;28;20059;-77
2021/06/08 11:45:44;;;;;;;1.92;1.60;;;27.40;90.50;;;;;;5018303;28;20028;-78
2021/06/08 11:48:35;;;;;;;1.95;1.75;;;27.40;91.50;;;;;;5017135;28;20030;-78
2021/06/08 11:51:03;;;;;;;3.60;1.88;;;27.40;92.70;;;;;;5015120;28;20034;-79
2021/06/08 11:53:29;;;;;;;3.10;1.90;;;27.50;90.80;;;;;;5018043;28;20119;-78
2021/06/08 11:56:09;;;;;;;2.72;2.53;;;27.60;93.30;;;;;;5019473;28;20033;-77
2021/06/08 11:58:39;;;;;;;4.18;1.88;;;27.80;90.80;;;;;;5018690;28;20033;-79
2021/06/08 12:01:28;;;;;;;2.63;1.50;;;27.80;91.80;;;;;;5022117;28;20088;-79
2021/06/08 12:04:00;;;;;;;4.05;1.52;;;27.70;89.20;;;;;;5014070;28;20038;-79
2021/06/08 12:06:54;;;;;;;1.92;1.30;;;27.50;90.60;;;;;;5019881;28;20478;-79
2021/06/08 12:09:20;;;;;;;2.08;1.10;;;27.50;87.20;;;;;;5016047;28;20060;-73
2021/06/08 12:11:47;;;;;;;2.03;1.45;;;27.50;89.00;;;;;;5015901;28;20018;-79
2021/06/08 12:14:13;;;;;;;2.05;1.73;;;27.70;90.40;;;;;;5017433;28;20113;-79
2021/06/08 12:16:39;;;;;;;2.80;2.03;;;27.80;87.10;;;;;;5016251;28;20108;-78
2021/06/08 12:19:09;;;;;;;1.85;1.75;;;27.80;86.50;;;;;;5013813;28;20026;-78
2021/06/08 12:21:34;;;;;;;2.88;1.52;;;27.70;90.00;;;;;;5017292;28;20022;-76
2021/06/08 12:24:00;;;;;;;2.20;1.98;;;27.80;88.60;;;;;;5017816;28;20517;-79
2021/06/08 12:26:26;;;;;;;3.28;2.03;;;27.70;86.10;;;;;;5016028;28;20425;-79
2021/06/08 12:29:07;;;;;;;2.30;2.10;;;27.90;87.80;;;;;;5017991;28;20475;-82
2021/06/08 12:31:37;;;;;;;2.17;1.95;;;28.10;88.40;;;;;;5021004;28;20129;-78
2021/06/08 12:34:18;;;;;;;3.55;2.08;;;28.00;82.30;;;;;;5016327;28;20033;-78
2021/06/08 12:36:45;;;;;;;2.15;1.88;;;27.90;88.30;;;;;;5018169;28;20124;-79
2021/06/08 12:39:13;;;;;;;1.98;1.88;;;27.90;90.10;;;;;;5017324;28;20088;-79
2021/06/08 12:41:39;;;;;;;2.55;1.60;;;27.80;85.30;;;;;;5017325;28;20523;-81
2021/06/08 12:44:05;;;;;;;2.05;1.58;;;28.00;89.50;;;;;;5022156;28;20124;-80
2021/06/08 12:46:38;;;;;;;3.08;2.00;;;28.00;87.70;;;;;;5018385;28;20028;-80